createdAt,value
2022-12-08T00:02:47.349Z,1.50
2022-12-08T00:06:09.882Z,1.23
2022-12-08T00:09:25.868Z,1.53
2022-12-08T00:12:30.747Z,1.53
2022-12-08T00:15:37.081Z,1.33
2022-12-08T00:18:41.933Z,1.40
2022-12-08T00:21:47.387Z,1.40
2022-12-08T00:24:52.263Z,1.80
2022-12-08T00:27:57.125Z,1.87
2022-12-08T00:31:09.208Z,1.70
2022-12-08T00:34:14.740Z,1.77
2022-12-08T00:37:19.700Z,1.80
2022-12-08T00:40:24.529Z,1.77
2022-12-08T00:43:29.417Z,1.40
2022-12-08T00:46:36.103Z,1.50
2022-12-08T00:49:41.394Z,1.60
2022-12-08T00:52:46.249Z,1.70
2022-12-08T00:55:51.100Z,1.37
2022-12-08T00:58:56.041Z,1.33
2022-12-08T01:02:02.336Z,1.73
2022-12-08T01:05:08.007Z,1.67
2022-12-08T01:08:14.907Z,1.47
2022-12-08T01:11:21.247Z,1.30
2022-12-08T01:14:26.177Z,1.53
2022-12-08T01:17:32.376Z,1.60
2022-12-08T01:20:37.281Z,1.60
2022-12-08T01:23:42.323Z,1.40
2022-12-08T01:26:47.555Z,1.50
2022-12-08T01:29:52.574Z,1.57
2022-12-08T01:32:59.475Z,1.47
2022-12-08T01:36:05.471Z,1.47
2022-12-08T01:39:15.265Z,1.50
2022-12-08T01:42:24.825Z,1.50
2022-12-08T01:45:31.116Z,1.33
2022-12-08T01:48:37.550Z,1.63
2022-12-08T01:51:45.746Z,1.70
2022-12-08T01:54:54.814Z,1.50
2022-12-08T01:58:04.976Z,1.63
2022-12-08T02:01:10.008Z,1.50
2022-12-08T02:04:16.274Z,1.57
2022-12-08T02:07:21.177Z,1.50
2022-12-08T02:10:28.763Z,1.60
2022-12-08T02:13:33.807Z,1.70
2022-12-08T02:16:43.508Z,1.53
2022-12-08T02:20:09.610Z,1.20
2022-12-08T02:23:25.709Z,1.50
2022-12-08T02:27:12.538Z,1.30
2022-12-08T02:30:21.872Z,1.40
2022-12-08T02:33:48.709Z,1.30
2022-12-08T02:36:58.775Z,1.20
2022-12-08T02:40:08.541Z,1.30
2022-12-08T02:43:18.517Z,1.40
2022-12-08T02:46:25.291Z,1.40
2022-12-08T02:49:32.998Z,1.33
2022-12-08T02:52:45.364Z,1.50
2022-12-08T02:55:58.804Z,1.53
2022-12-08T02:59:15.186Z,1.17
2022-12-08T03:02:36.776Z,1.20
2022-12-08T03:06:00.538Z,1.10
2022-12-08T03:09:10.042Z,1.43
2022-12-08T03:12:18.057Z,1.57
2022-12-08T03:15:23.712Z,1.13
2022-12-08T03:18:32.365Z,1.10
2022-12-08T03:21:39.588Z,1.23
2022-12-08T03:24:46.225Z,1.23
2022-12-08T03:27:51.519Z,1.20
2022-12-08T03:30:59.389Z,1.23
2022-12-08T03:34:05.006Z,1.37
2022-12-08T03:37:12.357Z,1.17
2022-12-08T03:40:20.046Z,1.30
2022-12-08T03:43:24.945Z,1.30
2022-12-08T03:49:35.197Z,1.50
2022-12-08T03:52:41.457Z,1.23
2022-12-08T03:55:46.366Z,1.30
2022-12-08T03:58:51.720Z,1.33
2022-12-08T04:01:56.923Z,1.10
2022-12-08T04:05:01.729Z,1.73
2022-12-08T04:08:08.271Z,1.30
2022-12-08T04:11:13.729Z,1.40
2022-12-08T04:14:18.877Z,1.47
2022-12-08T04:17:23.794Z,1.37
2022-12-08T04:20:28.758Z,1.40
2022-12-08T04:23:35.078Z,1.30
2022-12-08T04:26:39.961Z,1.27
2022-12-08T04:29:44.905Z,1.30
2022-12-08T04:32:49.796Z,1.50
2022-12-08T04:35:54.609Z,1.27
2022-12-08T04:39:00.975Z,1.20
2022-12-08T04:42:06.034Z,1.30
2022-12-08T04:45:11.597Z,1.20
2022-12-08T04:48:16.711Z,1.13
2022-12-08T04:51:22.362Z,1.10
2022-12-08T04:54:28.629Z,1.33
2022-12-08T04:57:33.509Z,1.50
2022-12-08T05:00:38.436Z,1.50
2022-12-08T05:03:43.513Z,1.23
2022-12-08T05:06:48.359Z,1.30
2022-12-08T05:09:54.617Z,1.50
2022-12-08T05:13:00.014Z,1.40
2022-12-08T05:16:06.174Z,1.40
2022-12-08T05:19:12.527Z,1.30
2022-12-08T05:22:17.450Z,1.40
2022-12-08T05:25:23.787Z,1.30
2022-12-08T05:28:41.493Z,1.33
2022-12-08T05:31:47.352Z,1.40
2022-12-08T05:34:52.292Z,1.27
2022-12-08T05:37:57.088Z,1.50
2022-12-08T05:41:03.686Z,1.60
2022-12-08T05:44:10.327Z,1.40
2022-12-08T05:47:15.234Z,1.63
2022-12-08T05:50:20.213Z,1.50
2022-12-08T05:53:25.248Z,1.67
2022-12-08T05:56:31.598Z,1.63
2022-12-08T05:59:37.601Z,1.70
2022-12-08T06:02:42.853Z,1.70
2022-12-08T06:05:48.800Z,1.47
2022-12-08T06:08:54.135Z,1.53
2022-12-08T06:12:00.474Z,1.53
2022-12-08T06:15:05.840Z,1.80
2022-12-08T06:18:12.027Z,1.73
2022-12-08T06:21:17.737Z,1.50
2022-12-08T06:24:22.653Z,1.60
2022-12-08T06:27:28.964Z,1.50
2022-12-08T06:30:34.017Z,1.63
2022-12-08T06:33:39.234Z,1.70
2022-12-08T06:36:44.154Z,1.80
2022-12-08T06:39:48.960Z,1.60
2022-12-08T06:42:55.207Z,1.67
2022-12-08T06:46:00.488Z,1.60
2022-12-08T06:49:05.444Z,1.70
2022-12-08T06:52:12.163Z,1.90
2022-12-08T06:55:42.707Z,1.93
2022-12-08T06:58:46.190Z,1.80
2022-12-08T07:01:53.917Z,1.70
2022-12-08T07:04:58.913Z,1.90
2022-12-08T07:08:03.924Z,1.50
2022-12-08T07:11:09.709Z,2.10
2022-12-08T07:14:16.095Z,2.07
2022-12-08T07:17:21.083Z,2.00
2022-12-08T07:20:26.009Z,1.60
2022-12-08T07:23:30.829Z,1.97
2022-12-08T07:26:35.833Z,1.70
2022-12-08T07:29:42.248Z,1.70
2022-12-08T07:32:47.542Z,2.00
2022-12-08T07:35:56.489Z,1.97
2022-12-08T07:39:01.433Z,1.67
2022-12-08T07:42:06.435Z,1.47
2022-12-08T07:45:13.381Z,1.70
2022-12-08T07:48:18.601Z,1.50
2022-12-08T07:51:24.890Z,1.70
2022-12-08T07:54:30.026Z,1.60
2022-12-08T07:57:35.018Z,1.60
2022-12-08T08:00:41.494Z,1.63
2022-12-08T08:03:46.400Z,2.23
2022-12-08T08:06:51.271Z,1.70
2022-12-08T08:09:56.117Z,1.60
2022-12-08T08:13:01.351Z,2.00
2022-12-08T08:16:09.511Z,1.67
2022-12-08T08:19:14.671Z,1.77
2022-12-08T08:22:21.123Z,1.73
2022-12-08T08:25:25.913Z,1.50
2022-12-08T08:28:31.379Z,1.50
2022-12-08T08:31:37.658Z,1.57
2022-12-08T08:34:43.394Z,1.60
2022-12-08T08:37:49.805Z,1.73
2022-12-08T08:40:55.562Z,1.50
2022-12-08T08:44:00.370Z,1.50
2022-12-08T08:47:07.878Z,1.53
2022-12-08T08:50:13.994Z,1.50
2022-12-08T08:53:18.929Z,1.43
2022-12-08T08:56:24.437Z,1.30
2022-12-08T08:59:29.863Z,1.30
2022-12-08T09:02:36.137Z,1.50
2022-12-08T09:05:42.054Z,1.50
2022-12-08T09:08:50.317Z,1.30
2022-12-08T09:11:55.692Z,1.80
2022-12-08T09:15:00.470Z,1.40
2022-12-08T09:18:07.788Z,1.60
2022-12-08T09:21:15.130Z,1.70
2022-12-08T09:24:21.502Z,2.03
2022-12-08T09:27:26.325Z,4.30
2022-12-08T09:30:31.563Z,3.63
2022-12-08T09:33:37.809Z,2.87
2022-12-08T09:36:43.678Z,2.37
2022-12-08T09:39:48.888Z,1.93
2022-12-08T09:42:59.925Z,1.90
2022-12-08T09:46:07.392Z,1.40
2022-12-08T09:49:17.834Z,1.67
2022-12-08T09:52:25.532Z,1.60
2022-12-08T09:55:41.875Z,1.30
2022-12-08T09:58:52.801Z,1.30
2022-12-08T10:01:58.067Z,1.30
2022-12-08T10:05:04.560Z,19.43
2022-12-08T10:08:17.287Z,8.77
2022-12-08T10:11:28.195Z,3.07
2022-12-08T10:14:37.858Z,2.00
2022-12-08T10:17:46.355Z,1.30
2022-12-08T10:20:53.540Z,1.30
2022-12-08T10:24:03.130Z,1.20
2022-12-08T10:27:13.006Z,1.30
2022-12-08T10:30:20.046Z,1.23
2022-12-08T10:33:25.076Z,1.30
2022-12-08T10:36:49.901Z,1.60
2022-12-08T10:40:02.032Z,1.40
2022-12-08T10:43:07.067Z,1.30
2022-12-08T10:46:14.867Z,1.17
2022-12-08T10:49:27.688Z,1.40
2022-12-08T10:52:33.822Z,1.40
2022-12-08T10:55:43.312Z,1.37
2022-12-08T10:58:49.489Z,1.20
2022-12-08T11:01:56.624Z,1.50
2022-12-08T11:05:01.646Z,1.50
2022-12-08T11:08:11.200Z,1.50
2022-12-08T11:11:16.988Z,1.40
2022-12-08T11:14:25.268Z,1.60
2022-12-08T11:17:39.285Z,1.70
2022-12-08T11:20:44.211Z,1.70
2022-12-08T11:23:51.603Z,1.80
2022-12-08T11:27:01.218Z,1.80
2022-12-08T11:30:15.104Z,2.10
2022-12-08T11:33:23.336Z,2.20
2022-12-08T11:36:30.490Z,2.13
2022-12-08T11:39:40.770Z,1.87
2022-12-08T11:42:53.295Z,1.53
2022-12-08T11:46:00.760Z,1.93
2022-12-08T11:49:07.693Z,1.83
2022-12-08T11:52:20.815Z,2.00
2022-12-08T11:55:37.191Z,1.73
2022-12-08T11:58:47.221Z,2.00
2022-12-08T12:01:52.709Z,2.30
2022-12-08T12:05:02.471Z,2.23
2022-12-08T12:08:14.783Z,2.40
2022-12-08T12:11:54.498Z,2.10
2022-12-08T12:15:31.284Z,2.37
2022-12-08T12:18:41.103Z,2.50
2022-12-08T12:21:47.923Z,2.80
2022-12-08T12:24:53.762Z,3.17
2022-12-08T12:28:02.120Z,2.73
2022-12-08T12:31:09.770Z,2.73
2022-12-08T12:34:24.852Z,3.00
2022-12-08T12:37:38.301Z,2.47
2022-12-08T12:40:44.573Z,2.73
2022-12-08T12:44:13.855Z,2.33
2022-12-08T12:47:49.712Z,2.30
2022-12-08T12:50:59.279Z,2.40
2022-12-08T12:54:22.483Z,2.50
2022-12-08T12:57:37.728Z,2.03
2022-12-08T13:00:43.996Z,2.20
2022-12-08T13:03:50.821Z,2.40
2022-12-08T13:06:55.657Z,2.37
2022-12-08T13:10:04.688Z,2.00
2022-12-08T13:13:18.249Z,2.20
2022-12-08T13:16:26.715Z,2.10
2022-12-08T13:19:33.985Z,2.10
2022-12-08T13:23:26.330Z,2.10
2022-12-08T13:26:31.191Z,2.23
2022-12-08T13:29:36.225Z,2.10
2022-12-08T13:33:17.603Z,2.70
2022-12-08T13:36:26.753Z,1.90
2022-12-08T13:39:36.555Z,2.20
2022-12-08T13:42:45.210Z,2.37
2022-12-08T13:59:45.265Z,2.53
2022-12-08T14:02:51.458Z,2.70
2022-12-08T14:06:13.682Z,2.70
2022-12-08T14:09:21.264Z,2.20
2022-12-08T14:12:28.089Z,2.13
2022-12-08T14:15:38.140Z,2.13
2022-12-08T14:18:43.474Z,2.23
2022-12-08T14:21:55.447Z,3.40
2022-12-08T14:25:00.200Z,2.47
2022-12-08T14:28:06.671Z,2.27
2022-12-08T14:31:14.082Z,2.60
2022-12-08T14:34:18.959Z,2.87
2022-12-08T14:37:26.651Z,2.27
2022-12-08T14:40:34.791Z,2.47
2022-12-08T14:43:40.966Z,2.80
2022-12-08T14:47:07.263Z,2.47
2022-12-08T14:50:52.079Z,2.90
2022-12-08T14:53:59.754Z,2.90
2022-12-08T14:57:04.973Z,2.50
2022-12-08T15:00:12.300Z,2.33
2022-12-08T15:03:18.197Z,2.73
2022-12-08T15:06:23.776Z,2.57
2022-12-08T15:09:36.677Z,2.37
2022-12-08T15:12:41.642Z,2.70
2022-12-08T15:15:52.137Z,2.90
2022-12-08T15:19:16.497Z,2.57
2022-12-08T15:22:23.487Z,2.60
2022-12-08T15:25:29.807Z,2.53
2022-12-08T15:28:34.635Z,2.70
2022-12-08T15:31:39.469Z,2.97
2022-12-08T15:34:44.349Z,2.97
2022-12-08T15:37:49.139Z,2.90
2022-12-08T15:40:55.722Z,2.70
2022-12-08T15:44:00.525Z,2.33
2022-12-08T15:47:05.440Z,2.40
2022-12-08T15:50:17.563Z,2.40
2022-12-08T15:53:22.394Z,2.30
2022-12-08T15:56:29.046Z,2.50
2022-12-08T15:59:33.944Z,2.53
2022-12-08T16:03:13.212Z,2.50
2022-12-08T16:06:50.818Z,2.23
2022-12-08T16:09:31.316Z,2.43
2022-12-08T16:16:22.934Z,2.50
2022-12-08T16:19:27.795Z,2.70
2022-12-08T16:29:26.815Z,3.00
2022-12-08T16:32:31.782Z,2.77
2022-12-08T16:35:36.657Z,3.40
2022-12-08T16:38:41.459Z,6.37
2022-12-08T16:42:04.020Z,2.70
2022-12-08T16:45:13.239Z,3.00
2022-12-08T16:48:18.223Z,3.03
2022-12-08T16:51:26.858Z,2.90
2022-12-08T16:54:32.379Z,3.03
2022-12-08T16:57:37.282Z,3.13
2022-12-08T17:00:43.896Z,3.10
2022-12-08T17:04:07.466Z,2.87
2022-12-08T17:07:14.230Z,2.87
2022-12-08T17:10:21.446Z,3.23
2022-12-08T17:13:26.298Z,2.80
2022-12-08T17:16:32.619Z,3.10
2022-12-08T17:19:37.643Z,2.97
2022-12-08T17:22:42.693Z,3.60
2022-12-08T17:25:57.869Z,3.47
2022-12-08T17:29:03.632Z,3.57
2022-12-08T17:32:09.984Z,6.03
2022-12-08T17:35:15.702Z,3.70
2022-12-08T17:38:21.313Z,3.90
2022-12-08T17:41:26.347Z,4.07
2022-12-08T17:44:31.927Z,3.83
2022-12-08T17:47:38.676Z,4.60
2022-12-08T17:50:45.608Z,4.60
2022-12-08T17:53:51.282Z,5.03
2022-12-08T17:56:58.729Z,5.30
2022-12-08T18:00:04.588Z,4.90
2022-12-08T18:03:18.154Z,5.27
2022-12-08T18:06:26.865Z,5.13
2022-12-08T18:09:34.823Z,5.03
2022-12-08T18:12:39.996Z,4.77
2022-12-08T18:15:44.811Z,4.23
2022-12-08T18:18:51.828Z,4.20
2022-12-08T18:21:56.899Z,4.07
2022-12-08T18:25:01.832Z,4.40
2022-12-08T18:28:06.799Z,4.37
2022-12-08T18:31:13.375Z,4.33
2022-12-08T18:34:20.065Z,4.37
2022-12-08T18:37:25.305Z,4.23
2022-12-08T18:40:30.313Z,4.13
2022-12-08T18:43:35.226Z,4.13
2022-12-08T18:46:40.146Z,3.90
2022-12-08T18:49:46.639Z,3.97
2022-12-08T18:52:51.963Z,3.80
2022-12-08T18:55:56.904Z,4.20
2022-12-08T18:59:04.016Z,5.00
2022-12-08T19:02:09.492Z,5.47
2022-12-08T19:05:16.463Z,5.63
2022-12-08T19:08:24.311Z,5.10
2022-12-08T19:11:31.542Z,5.13
2022-12-08T19:14:36.534Z,5.77
2022-12-08T19:17:41.648Z,5.10
2022-12-08T19:20:47.901Z,5.37
2022-12-08T19:23:52.911Z,5.77
2022-12-08T19:26:57.873Z,6.07
2022-12-08T19:30:03.254Z,5.67
2022-12-08T19:33:08.634Z,6.23
2022-12-08T19:36:17.969Z,6.20
2022-12-08T19:39:42.441Z,5.67
2022-12-08T19:43:04.909Z,6.03
2022-12-08T19:46:10.664Z,7.30
2022-12-08T19:49:15.694Z,7.47
2022-12-08T19:52:22.318Z,7.63
2022-12-08T19:55:27.626Z,8.23
2022-12-08T19:58:32.573Z,8.97
2022-12-08T20:01:38.407Z,7.50
2022-12-08T20:04:43.328Z,7.83
2022-12-08T20:07:49.982Z,6.93
2022-12-08T20:10:56.107Z,6.90
2022-12-08T20:14:01.146Z,6.30
2022-12-08T20:17:06.189Z,5.73
2022-12-08T20:20:15.056Z,5.40
2022-12-08T20:23:21.540Z,4.90
2022-12-08T20:26:26.729Z,5.30
2022-12-08T20:29:31.648Z,5.63
2022-12-08T20:32:36.637Z,5.60
2022-12-08T20:35:42.094Z,4.97
2022-12-08T20:38:49.329Z,5.00
2022-12-08T20:41:54.725Z,5.73
2022-12-08T20:44:59.662Z,5.43
2022-12-08T20:48:04.658Z,5.97
2022-12-08T20:51:09.833Z,5.30
2022-12-08T20:54:16.321Z,6.23
2022-12-08T20:57:21.251Z,5.40
2022-12-08T21:00:27.930Z,5.37
2022-12-08T21:03:32.917Z,5.80
2022-12-08T21:06:38.004Z,6.00
2022-12-08T21:09:44.536Z,5.43
2022-12-08T21:12:49.759Z,5.40
2022-12-08T21:15:54.691Z,5.07
2022-12-08T21:19:00.351Z,5.93
2022-12-08T21:22:05.349Z,6.53
2022-12-08T21:25:13.477Z,5.63
2022-12-08T21:28:18.451Z,5.80
2022-12-08T21:31:26.406Z,5.50
2022-12-08T21:34:34.227Z,6.40
2022-12-08T21:37:39.324Z,5.80
2022-12-08T21:40:47.242Z,5.00
2022-12-08T21:43:52.267Z,5.17
2022-12-08T21:46:57.563Z,5.67
2022-12-08T21:50:02.825Z,5.50
2022-12-08T21:53:07.795Z,5.00
2022-12-08T21:56:15.005Z,5.13
2022-12-08T21:59:20.966Z,4.93
2022-12-08T22:02:25.946Z,5.63
2022-12-08T22:05:31.203Z,5.13
2022-12-08T22:08:36.478Z,5.40
2022-12-08T22:11:43.575Z,5.07
2022-12-08T22:14:51.007Z,5.50
2022-12-08T22:17:56.078Z,5.23
2022-12-08T22:21:01.258Z,4.97
2022-12-08T22:24:06.747Z,5.10
2022-12-08T22:27:12.954Z,5.10
2022-12-08T22:30:18.218Z,5.23
2022-12-08T22:33:23.315Z,5.33
2022-12-08T22:36:29.027Z,4.87
2022-12-08T22:39:35.738Z,5.83
2022-12-08T22:42:42.296Z,5.90
2022-12-08T22:45:47.599Z,5.33
2022-12-08T22:48:52.679Z,5.20
2022-12-08T22:51:57.675Z,5.43
2022-12-08T22:55:02.458Z,5.07
2022-12-08T22:58:08.850Z,5.43
2022-12-08T23:01:24.268Z,5.57
2022-12-08T23:04:29.364Z,5.43
2022-12-08T23:07:34.336Z,5.47
2022-12-08T23:10:41.900Z,5.70
2022-12-08T23:13:48.579Z,5.27
2022-12-08T23:16:53.587Z,5.33
2022-12-08T23:19:58.447Z,6.03
2022-12-08T23:23:03.662Z,6.00
2022-12-08T23:26:16.554Z,5.67
2022-12-08T23:29:22.813Z,5.50
2022-12-08T23:32:28.199Z,5.53
2022-12-08T23:35:33.194Z,6.07
2022-12-08T23:38:38.014Z,5.87
2022-12-08T23:41:42.907Z,5.90
2022-12-08T23:44:49.425Z,6.40
2022-12-08T23:47:54.647Z,6.20
2022-12-08T23:50:59.448Z,5.77
2022-12-08T23:54:07.222Z,6.23
2022-12-08T23:57:12.521Z,6.23
